createdAt,value
2019-03-30T10:29:27.657Z,0.048
2019-03-30T10:29:41.183Z,0.029
2019-03-30T10:29:47.177Z,0.029
2019-03-30T10:29:53.717Z,0.025
2019-03-30T10:30:05.120Z,0.022
2019-03-30T10:30:11.767Z,0.022
2019-03-30T10:30:18.203Z,0.022
2019-03-30T10:30:24.801Z,0.022
2019-03-30T10:30:31.469Z,0.022
2019-03-30T10:30:37.981Z,0.018
2019-03-30T10:30:44.556Z,0.018
2019-03-30T10:30:51.584Z,0.018
2019-03-30T10:30:57.651Z,0.018
2019-03-30T10:31:04.238Z,0.018
2019-03-30T10:31:10.833Z,0.018
2019-03-30T10:31:18.389Z,0.018
2019-03-30T10:31:28.179Z,0.018
2019-03-30T10:31:37.992Z,0.015
2019-03-30T10:31:45.027Z,0.015
2019-03-30T10:31:52.573Z,0.015
2019-03-30T10:32:01.841Z,0.015
2019-03-30T10:32:07.944Z,0.018
2019-03-30T10:32:14.476Z,0.015
2019-03-30T10:32:21.074Z,0.015
2019-03-30T10:32:29.650Z,0.015
2019-03-30T10:32:35.851Z,0.015
2019-03-30T10:32:42.408Z,0.015
2019-03-30T10:32:50.946Z,0.015
2019-03-30T10:32:57.166Z,0.015
2019-03-30T10:33:05.307Z,0.015
2019-03-30T10:33:11.799Z,0.012
2019-03-30T10:33:18.554Z,0.012
2019-03-30T10:33:24.951Z,0.015
2019-03-30T10:33:31.524Z,0.012
2019-03-30T10:33:38.075Z,0.015
2019-03-30T10:33:44.984Z,0.012
2019-03-30T10:33:51.204Z,0.012
2019-03-30T10:33:57.871Z,0.012
2019-03-30T10:34:04.482Z,0.015
2019-03-30T10:34:10.901Z,0.012
2019-03-30T10:34:18.566Z,0.012
2019-03-30T10:34:25.649Z,0.012
2019-03-30T10:34:32.226Z,0.012
2019-03-30T10:34:40.604Z,0.015
2019-03-30T10:34:46.955Z,0.012
2019-03-30T10:34:53.559Z,0.012
2019-03-30T10:35:00.351Z,0.012
2019-03-30T10:35:06.813Z,0.012
2019-03-30T10:35:14.294Z,0.012
2019-03-30T10:35:21.480Z,0.012
2019-03-30T10:35:38.847Z,0.012
2019-03-30T10:35:45.896Z,0.012
2019-03-30T10:35:52.506Z,0.012
2019-03-30T10:35:59.029Z,0.012
2019-03-30T10:36:05.555Z,0.012
2019-03-30T10:36:12.268Z,0.012
2019-03-30T10:36:18.643Z,0.018
2019-03-30T10:36:25.182Z,0.034
2019-03-30T10:36:31.853Z,0.034
2019-03-30T10:36:38.381Z,0.022
2019-03-30T10:36:44.982Z,0.018
2019-03-30T10:36:51.522Z,0.018
2019-03-30T10:36:58.099Z,0.015
2019-03-30T10:37:04.621Z,0.015
2019-03-30T10:37:11.180Z,0.015
2019-03-30T10:37:17.729Z,0.015
2019-03-30T10:37:24.309Z,0.015
2019-03-30T10:37:30.849Z,0.018
2019-03-30T10:37:37.428Z,0.018
2019-03-30T10:37:43.990Z,0.018
2019-03-30T10:37:50.556Z,0.015
2019-03-30T10:37:57.160Z,0.015
2019-03-30T10:38:03.752Z,0.015
2019-03-30T10:38:11.653Z,0.025
2019-03-30T10:38:18.758Z,0.015
2019-03-30T10:38:28.192Z,0.018
2019-03-30T10:38:34.861Z,0.018
2019-03-30T10:38:41.452Z,0.015
2019-03-30T10:38:50.650Z,0.015
2019-03-30T10:38:58.795Z,0.015
2019-03-30T10:39:08.064Z,0.015
2019-03-30T10:39:14.175Z,0.012
2019-03-30T10:39:20.946Z,0.012
2019-03-30T10:39:30.258Z,0.015
2019-03-30T10:39:37.207Z,0.012
2019-03-30T10:39:44.442Z,0.015
2019-03-30T10:39:51.882Z,0.012
2019-03-30T10:40:04.165Z,0.012
2019-03-30T10:40:11.402Z,0.012
2019-03-30T10:40:21.787Z,0.012
2019-03-30T10:40:35.519Z,0.012
2019-03-30T10:40:42.569Z,0.012
2019-03-30T10:40:49.956Z,0.012
2019-03-30T10:40:58.781Z,0.012
2019-03-30T10:41:10.324Z,0.012
2019-03-30T10:41:17.590Z,0.012
2019-03-30T10:41:24.774Z,0.012
2019-03-30T10:41:32.452Z,0.012
2019-03-30T10:41:40.043Z,0.012
2019-03-30T10:41:46.255Z,0.012
2019-03-30T10:41:53.151Z,0.012
2019-03-30T10:42:00.432Z,0.012
2019-03-30T10:42:13.627Z,0.012
2019-03-30T10:42:25.357Z,0.012
2019-03-30T10:42:35.826Z,0.012
2019-03-30T10:42:46.250Z,0.012
2019-03-30T10:42:53.958Z,0.012
2019-03-30T10:43:02.414Z,0.012
2019-03-30T10:43:09.319Z,0.012
2019-03-30T10:43:17.111Z,0.012
2019-03-30T10:43:29.554Z,0.01
2019-03-30T10:43:38.169Z,0.01
2019-03-30T10:43:47.136Z,0.01
2019-03-30T10:43:58.372Z,0.01
2019-03-30T10:44:04.941Z,0.01
2019-03-30T10:44:11.478Z,0.01
2019-03-30T10:44:19.008Z,0.01
2019-03-30T10:44:33.302Z,0.012
2019-03-30T10:44:42.535Z,0.01
2019-03-30T10:44:50.338Z,0.01
2019-03-30T10:44:58.888Z,0.01
2019-03-30T10:45:05.838Z,0.01
2019-03-30T10:45:11.994Z,0.012
2019-03-30T10:45:18.162Z,0.012
2019-03-30T10:45:24.740Z,0.012
2019-03-30T10:45:31.435Z,0.01
2019-03-30T10:45:38.905Z,0.01
2019-03-30T10:45:46.979Z,0.01
2019-03-30T10:45:55.906Z,0.01
2019-03-30T10:46:05.043Z,0.01
2019-03-30T10:46:13.426Z,0.01
2019-03-30T10:46:26.560Z,0.01
2019-03-30T10:46:33.719Z,0.01
2019-03-30T10:46:42.802Z,0.01
2019-03-30T10:46:54.220Z,0.01
2019-03-30T10:47:06.279Z,0.01
2019-03-30T10:47:13.189Z,0.01
2019-03-30T10:47:23.446Z,0.01
2019-03-30T10:47:31.465Z,0.01
2019-03-30T10:47:39.829Z,0.01
2019-03-30T10:47:48.055Z,0.01
2019-03-30T10:47:57.065Z,0.01
2019-03-30T10:48:05.181Z,0.01
2019-03-30T10:48:12.381Z,0.01
2019-03-30T10:48:22.659Z,0.01
2019-03-30T10:48:30.830Z,0.01
2019-03-30T10:48:38.244Z,0.01
2019-03-30T10:48:48.313Z,0.01
2019-03-30T10:48:57.298Z,0.01
2019-03-30T10:49:07.016Z,0.01
2019-03-30T10:49:14.454Z,0.01
2019-03-30T10:49:21.926Z,0.01
2019-03-30T10:49:27.946Z,0.01
2019-03-30T10:49:34.639Z,0.01
2019-03-30T10:49:41.223Z,0.01
2019-03-30T10:49:47.675Z,0.01
2019-03-30T10:49:54.196Z,0.01
2019-03-30T10:50:02.144Z,0.01
2019-03-30T10:50:09.005Z,0.01
2019-03-30T10:50:15.476Z,0.01
2019-03-30T10:50:22.040Z,0.01
2019-03-30T10:50:28.696Z,0.01
2019-03-30T10:50:35.317Z,0.01
2019-03-30T10:50:41.981Z,0.01
2019-03-30T10:50:48.823Z,0.01
2019-03-30T10:50:55.016Z,0.01
2019-03-30T10:51:01.535Z,0.01
2019-03-30T10:51:08.149Z,0.01
2019-03-30T10:51:14.693Z,0.01
2019-03-30T10:51:23.427Z,0.01
2019-03-30T10:51:29.420Z,0.01
2019-03-30T10:51:35.922Z,0.01
2019-03-30T10:51:45.273Z,0.01
2019-03-30T10:51:55.153Z,0.01
2019-03-30T10:52:02.097Z,0.01
2019-03-30T10:52:09.697Z,0.01
2019-03-30T10:52:18.026Z,0.01
2019-03-30T10:52:28.582Z,0.01
2019-03-30T10:52:34.779Z,0.01
2019-03-30T10:52:41.414Z,0.01
2019-03-30T10:52:47.884Z,0.01
2019-03-30T10:52:54.642Z,0.01
2019-03-30T10:53:01.063Z,0.01
2019-03-30T10:53:07.613Z,0.01
2019-03-30T10:53:14.528Z,0.01
2019-03-30T10:53:23.705Z,0.01
2019-03-30T10:53:32.129Z,0.01
2019-03-30T10:53:38.704Z,0.01
2019-03-30T10:53:45.345Z,0.01
2019-03-30T10:53:51.938Z,0.01
2019-03-30T10:53:58.786Z,0.01
2019-03-30T10:54:05.109Z,0.01
2019-03-30T10:54:11.654Z,0.01
2019-03-30T10:54:18.508Z,0.01
2019-03-30T10:54:24.983Z,0.01
2019-03-30T10:54:31.337Z,0.01
2019-03-30T10:54:53.969Z,0.01
2019-03-30T10:55:00.655Z,0.01
2019-03-30T10:55:07.064Z,0.01
2019-03-30T10:55:13.549Z,0.01
2019-03-30T10:55:20.131Z,0.01
2019-03-30T10:55:26.653Z,0.01
2019-03-30T10:55:34.335Z,0.01
2019-03-30T10:55:41.530Z,0.01
2019-03-30T10:55:48.102Z,0.01
2019-03-30T10:55:54.631Z,0.01
2019-03-30T10:56:01.327Z,0.01
2019-03-30T10:56:07.915Z,0.01
2019-03-30T10:56:14.445Z,0.01
2019-03-30T10:56:20.900Z,0.007
2019-03-30T10:56:27.472Z,0.01
2019-03-30T10:56:34.045Z,0.01
2019-03-30T10:56:40.682Z,0.01
2019-03-30T10:56:47.283Z,0.01
2019-03-30T10:56:53.859Z,0.01
2019-03-30T10:57:03.689Z,0.01
2019-03-30T10:57:12.686Z,0.01
2019-03-30T10:57:18.417Z,0.01
2019-03-30T10:57:25.895Z,0.01
2019-03-30T10:57:33.050Z,0.01
2019-03-30T10:57:39.651Z,0.01
2019-03-30T10:57:46.284Z,0.01
2019-03-30T10:57:53.113Z,0.01
2019-03-30T10:57:59.826Z,0.01
2019-03-30T10:58:05.814Z,0.01
2019-03-30T10:58:12.525Z,0.01
2019-03-30T10:58:19.266Z,0.01
2019-03-30T10:58:28.871Z,0.01
2019-03-30T10:58:38.442Z,0.01
2019-03-30T10:58:45.149Z,0.01
2019-03-30T10:58:52.832Z,0.01
2019-03-30T10:58:59.817Z,0.01
2019-03-30T10:59:06.385Z,0.01
2019-03-30T10:59:13.070Z,0.01
2019-03-30T10:59:19.555Z,0.01
2019-03-30T10:59:26.188Z,0.01
2019-03-30T10:59:32.808Z,0.01
2019-03-30T10:59:39.276Z,0.007
2019-03-30T10:59:45.906Z,0.01
2019-03-30T10:59:52.475Z,0.01
2019-03-30T10:59:59.067Z,0.007
2019-03-30T11:00:05.634Z,0.01
2019-03-30T11:00:12.197Z,0.007
2019-03-30T11:00:22.638Z,0.007
2019-03-30T11:00:28.464Z,0.01
2019-03-30T11:00:35.017Z,0.007
2019-03-30T11:00:41.858Z,0.01
2019-03-30T11:00:48.186Z,0.007
2019-03-30T11:00:54.736Z,0.01
2019-03-30T11:01:01.446Z,0.007
2019-03-30T11:01:07.903Z,0.007
2019-03-30T11:01:17.127Z,0.007
2019-03-30T11:01:24.243Z,0.007
2019-03-30T11:01:30.836Z,0.007
2019-03-30T11:01:37.418Z,0.007
2019-03-30T11:01:44.065Z,0.007
2019-03-30T11:01:50.545Z,0.007
2019-03-30T11:01:57.109Z,0.007
2019-03-30T11:02:03.831Z,0.007
2019-03-30T11:02:19.422Z,0.01
2019-03-30T11:02:26.674Z,0.01
2019-03-30T11:02:34.172Z,0.01
2019-03-30T11:02:41.180Z,0.01
2019-03-30T11:02:47.768Z,0.01
2019-03-30T11:02:54.289Z,0.01
2019-03-30T11:03:01.117Z,0.01
2019-03-30T11:03:07.597Z,0.01
2019-03-30T11:03:14.055Z,0.01
2019-03-30T11:03:20.580Z,0.01
2019-03-30T11:03:27.367Z,0.01
2019-03-30T11:03:33.914Z,0.007
2019-03-30T11:03:40.263Z,0.007
2019-03-30T11:03:46.902Z,0.01
2019-03-30T11:03:53.489Z,0.007
2019-03-30T11:04:00.298Z,0.007
2019-03-30T11:04:06.531Z,0.007
2019-03-30T11:04:13.122Z,0.007
2019-03-30T11:04:19.713Z,0.01
2019-03-30T11:04:26.230Z,0.01
2019-03-30T11:04:37.568Z,0.01
2019-03-30T11:04:44.153Z,0.007
2019-03-30T11:04:50.750Z,0.01
2019-03-30T11:04:57.467Z,0.01
2019-03-30T11:05:03.976Z,0.01
2019-03-30T11:05:10.548Z,0.007
2019-03-30T11:05:17.066Z,0.007
2019-03-30T11:05:23.584Z,0.01
2019-03-30T11:05:30.155Z,0.01
2019-03-30T11:05:36.773Z,0.007
2019-03-30T11:05:43.300Z,0.007
2019-03-30T11:05:49.889Z,0.01
2019-03-30T11:05:56.664Z,0.007
2019-03-30T11:06:03.356Z,0.007
2019-03-30T11:06:09.624Z,0.01
2019-03-30T11:06:19.214Z,0.007
2019-03-30T11:06:25.960Z,0.007
2019-03-30T11:06:32.778Z,0.007
2019-03-30T11:06:42.257Z,0.007
2019-03-30T11:06:51.382Z,0.007
2019-03-30T11:06:57.011Z,0.01
2019-03-30T11:07:04.759Z,0.007
2019-03-30T11:07:11.722Z,0.007
2019-03-30T11:07:18.358Z,0.007
2019-03-30T11:07:24.927Z,0.007
2019-03-30T11:07:31.566Z,0.007
2019-03-30T11:07:38.205Z,0.007
2019-03-30T11:07:44.583Z,0.007
2019-03-30T11:07:51.165Z,0.007
2019-03-30T11:07:57.702Z,0.007
2019-03-30T11:08:04.282Z,0.007
2019-03-30T11:08:10.944Z,0.007
2019-03-30T11:08:19.287Z,0.007
2019-03-30T11:08:25.653Z,0.007
2019-03-30T11:08:32.297Z,0.01
2019-03-30T11:08:38.940Z,0.007
2019-03-30T11:08:45.318Z,0.01
2019-03-30T11:08:51.898Z,0.01
2019-03-30T11:08:58.558Z,0.007
2019-03-30T11:09:05.203Z,0.01
2019-03-30T11:09:11.685Z,0.007
2019-03-30T11:09:18.225Z,0.01
2019-03-30T11:09:24.723Z,0.007
2019-03-30T11:09:31.430Z,0.007
2019-03-30T11:09:37.866Z,0.01
2019-03-30T11:09:44.942Z,0.007
2019-03-30T11:09:51.143Z,0.007
2019-03-30T11:09:57.692Z,0.01
2019-03-30T11:10:04.582Z,0.01
2019-03-30T11:10:10.698Z,0.007
2019-03-30T11:10:17.324Z,0.007
2019-03-30T11:10:23.795Z,0.007
2019-03-30T11:10:34.372Z,0.007
2019-03-30T11:10:40.141Z,0.007
2019-03-30T11:10:46.712Z,0.007
2019-03-30T11:10:53.279Z,0.007
2019-03-30T11:10:59.854Z,0.01
2019-03-30T11:11:06.399Z,0.01
2019-03-30T11:11:12.979Z,0.01
2019-03-30T11:11:19.507Z,0.01
2019-03-30T11:11:26.124Z,0.01
2019-03-30T11:11:32.764Z,0.01
2019-03-30T11:11:39.210Z,0.01
2019-03-30T11:11:45.859Z,0.01
2019-03-30T11:11:52.437Z,0.01
2019-03-30T11:11:58.958Z,0.01
2019-03-30T11:12:05.586Z,0.01
2019-03-30T11:12:12.141Z,0.007
2019-03-30T11:12:18.648Z,0.007
2019-03-30T11:12:25.300Z,0.007
2019-03-30T11:12:31.828Z,0.007
2019-03-30T11:12:38.362Z,0.007
2019-03-30T11:12:45.945Z,0.007
2019-03-30T11:12:53.100Z,0.007
2019-03-30T11:12:59.627Z,0.007
2019-03-30T11:13:06.172Z,0.01
2019-03-30T11:13:12.755Z,0.007
2019-03-30T11:13:19.338Z,0.007
2019-03-30T11:13:25.892Z,0.01
2019-03-30T11:13:32.441Z,0.01
2019-03-30T11:13:39.105Z,0.007
2019-03-30T11:13:45.593Z,0.01
2019-03-30T11:13:52.187Z,0.01
2019-03-30T11:13:58.746Z,0.007
2019-03-30T11:14:05.317Z,0.007
2019-03-30T11:14:11.867Z,0.007
2019-03-30T11:14:18.440Z,0.007
2019-03-30T11:14:25.030Z,0.01
2019-03-30T11:14:31.612Z,0.007
2019-03-30T11:14:38.136Z,0.007
2019-03-30T11:14:44.784Z,0.007
2019-03-30T11:14:51.264Z,0.007
2019-03-30T11:15:06.487Z,0.007
2019-03-30T11:15:12.435Z,0.007
2019-03-30T11:15:19.026Z,0.007
2019-03-30T11:15:25.608Z,0.007
2019-03-30T11:15:35.229Z,0.007
2019-03-30T11:15:41.948Z,0.007
2019-03-30T11:15:48.486Z,0.007
2019-03-30T11:15:55.078Z,0.007
2019-03-30T11:16:01.655Z,0.007
2019-03-30T11:16:08.235Z,0.01
2019-03-30T11:16:14.773Z,0.007
2019-03-30T11:16:21.385Z,0.01
2019-03-30T11:16:27.911Z,0.007
2019-03-30T11:16:34.483Z,0.01
2019-03-30T11:16:41.166Z,0.007
2019-03-30T11:16:47.665Z,0.007
2019-03-30T11:16:54.303Z,0.007
2019-03-30T11:17:00.746Z,0.007
2019-03-30T11:17:07.386Z,0.007
2019-03-30T11:17:13.931Z,0.007
2019-03-30T11:17:20.563Z,0.01
2019-03-30T11:17:27.044Z,0.007
2019-03-30T11:17:33.602Z,0.007
2019-03-30T11:17:40.176Z,0.007
2019-03-30T11:17:47.222Z,0.007
2019-03-30T11:17:53.309Z,0.007
2019-03-30T11:17:59.862Z,0.007
2019-03-30T11:18:06.484Z,0.007
2019-03-30T11:18:13.915Z,0.007
2019-03-30T11:40:02.447Z,0.007
2019-03-30T11:40:08.540Z,0.007
2019-03-30T11:40:15.299Z,0.007
2019-03-30T11:40:21.718Z,0.007
2019-03-30T11:40:28.288Z,0.007
2019-03-30T11:40:35.072Z,0.01
2019-03-30T11:40:41.349Z,0.01
2019-03-30T11:40:48.045Z,0.01
2019-03-30T11:40:54.489Z,0.01
2019-03-30T11:41:01.063Z,0.01
2019-03-30T11:41:07.698Z,0.022
2019-03-30T11:41:14.292Z,0.022
2019-03-30T11:41:20.845Z,0.018
2019-03-30T11:41:27.370Z,0.018
2019-03-30T11:41:33.931Z,0.015
2019-03-30T11:41:40.509Z,0.015
2019-03-30T11:41:47.049Z,0.015
2019-03-30T11:41:53.632Z,0.012
2019-03-30T11:42:00.229Z,0.012
2019-03-30T11:42:06.786Z,0.01
2019-03-30T11:42:13.289Z,0.012
2019-03-30T11:42:22.650Z,0.012
2019-03-30T11:42:29.723Z,0.012
2019-03-30T11:42:36.214Z,0.012
2019-03-30T11:42:42.815Z,0.01
2019-03-30T11:42:49.355Z,0.012
2019-03-30T11:42:56.209Z,0.01
2019-03-30T11:43:14.340Z,0.012
2019-03-30T11:43:21.704Z,0.012
2019-03-30T11:43:28.894Z,0.01
2019-03-30T11:43:34.995Z,0.01
2019-03-30T11:43:41.558Z,0.01
2019-03-30T11:43:48.166Z,0.01
2019-03-30T11:43:54.759Z,0.01
2019-03-30T11:44:01.479Z,0.01
2019-03-30T11:44:07.916Z,0.01
2019-03-30T11:44:16.222Z,0.012
2019-03-30T11:44:22.672Z,0.012
